sensor_id;sensor_type;location;lat;lon;timestamp;pressure;altitude;pressure_sealevel;temperature
12409;BMP180;6268;48.188;17.134;2023-03-13T00:01:38;49642.94;;;-134.68
12409;BMP180;6268;48.188;17.134;2023-03-13T00:04:08;49646.84;;;-134.68
12409;BMP180;6268;48.188;17.134;2023-03-13T00:06:38;49642.94;;;-134.68
12409;BMP180;6268;48.188;17.134;2023-03-13T00:09:11;49642.94;;;-134.68
12409;BMP180;6268;48.188;17.134;2023-03-13T00:11:41;49646.84;;;-134.68
12409;BMP180;6268;48.188;17.134;2023-03-13T00:14:11;49644.88;;;-134.68
12409;BMP180;6268;48.188;17.134;2023-03-13T00:16:41;49646.84;;;-134.68
12409;BMP180;6268;48.188;17.134;2023-03-13T00:19:10;49646.84;;;-134.68
12409;BMP180;6268;48.188;17.134;2023-03-13T00:21:39;49646.84;;;-134.68
12409;BMP180;6268;48.188;17.134;2023-03-13T00:24:10;49644.88;;;-134.68
12409;BMP180;6268;48.188;17.134;2023-03-13T00:26:39;49642.94;;;-134.68
12409;BMP180;6268;48.188;17.134;2023-03-13T00:29:08;49642.94;;;-134.68
12409;BMP180;6268;48.188;17.134;2023-03-13T00:31:37;49644.88;;;-134.68
12409;BMP180;6268;48.188;17.134;2023-03-13T00:34:08;49642.94;;;-134.68
12409;BMP180;6268;48.188;17.134;2023-03-13T00:36:38;49642.94;;;-134.68
12409;BMP180;6268;48.188;17.134;2023-03-13T00:39:06;49646.84;;;-134.68
12409;BMP180;6268;48.188;17.134;2023-03-13T00:41:36;49646.84;;;-134.68
12409;BMP180;6268;48.188;17.134;2023-03-13T00:44:05;49642.94;;;-134.68
12409;BMP180;6268;48.188;17.134;2023-03-13T00:46:35;49644.88;;;-134.68
12409;BMP180;6268;48.188;17.134;2023-03-13T00:49:06;49642.94;;;-134.68
12409;BMP180;6268;48.188;17.134;2023-03-13T00:51:35;49644.88;;;-134.68
12409;BMP180;6268;48.188;17.134;2023-03-13T00:54:04;49644.88;;;-134.68
12409;BMP180;6268;48.188;17.134;2023-03-13T00:56:33;49644.88;;;-134.68
12409;BMP180;6268;48.188;17.134;2023-03-13T00:59:03;49644.88;;;-134.68
12409;BMP180;6268;48.188;17.134;2023-03-13T01:01:34;49648.78;;;-134.68
12409;BMP180;6268;48.188;17.134;2023-03-13T01:04:07;49646.84;;;-134.68
12409;BMP180;6268;48.188;17.134;2023-03-13T01:06:39;49644.88;;;-134.68
12409;BMP180;6268;48.188;17.134;2023-03-13T01:09:15;49644.88;;;-134.68
12409;BMP180;6268;48.188;17.134;2023-03-13T01:11:45;49644.88;;;-134.68
12409;BMP180;6268;48.188;17.134;2023-03-13T01:14:16;49646.84;;;-134.68
12409;BMP180;6268;48.188;17.134;2023-03-13T01:16:46;49644.88;;;-134.68
12409;BMP180;6268;48.188;17.134;2023-03-13T01:19:16;49646.84;;;-134.68
12409;BMP180;6268;48.188;17.134;2023-03-13T01:21:46;49644.88;;;-134.68
12409;BMP180;6268;48.188;17.134;2023-03-13T01:24:15;49644.88;;;-134.68
12409;BMP180;6268;48.188;17.134;2023-03-13T01:26:45;49644.88;;;-134.68
12409;BMP180;6268;48.188;17.134;2023-03-13T01:29:14;49644.88;;;-134.68
12409;BMP180;6268;48.188;17.134;2023-03-13T01:31:43;49646.84;;;-134.68
12409;BMP180;6268;48.188;17.134;2023-03-13T01:34:12;49644.88;;;-134.68
12409;BMP180;6268;48.188;17.134;2023-03-13T01:36:43;49644.88;;;-134.68
12409;BMP180;6268;48.188;17.134;2023-03-13T01:39:13;49642.94;;;-134.68
12409;BMP180;6268;48.188;17.134;2023-03-13T01:41:42;49644.88;;;-134.68
12409;BMP180;6268;48.188;17.134;2023-03-13T01:44:21;49646.84;;;-134.68
12409;BMP180;6268;48.188;17.134;2023-03-13T01:46:51;49646.84;;;-134.68
12409;BMP180;6268;48.188;17.134;2023-03-13T01:49:23;49644.88;;;-134.68
12409;BMP180;6268;48.188;17.134;2023-03-13T01:52:00;49642.94;;;-134.68
12409;BMP180;6268;48.188;17.134;2023-03-13T01:54:37;49642.94;;;-134.68
12409;BMP180;6268;48.188;17.134;2023-03-13T01:57:15;49642.94;;;-134.68
12409;BMP180;6268;48.188;17.134;2023-03-13T01:59:50;49642.94;;;-134.68
12409;BMP180;6268;48.188;17.134;2023-03-13T02:02:21;49644.88;;;-134.68
12409;BMP180;6268;48.188;17.134;2023-03-13T02:04:56;49644.88;;;-134.68
12409;BMP180;6268;48.188;17.134;2023-03-13T02:07:35;49644.88;;;-134.68
12409;BMP180;6268;48.188;17.134;2023-03-13T02:10:06;49646.84;;;-134.68
12409;BMP180;6268;48.188;17.134;2023-03-13T02:12:39;49642.94;;;-134.68
12409;BMP180;6268;48.188;17.134;2023-03-13T02:15:12;49644.88;;;-134.68
12409;BMP180;6268;48.188;17.134;2023-03-13T02:17:43;49644.88;;;-134.68
12409;BMP180;6268;48.188;17.134;2023-03-13T02:20:15;49641.00;;;-134.68
12409;BMP180;6268;48.188;17.134;2023-03-13T02:22:53;49644.88;;;-134.68
12409;BMP180;6268;48.188;17.134;2023-03-13T02:25:38;49644.88;;;-134.68
12409;BMP180;6268;48.188;17.134;2023-03-13T02:28:15;49646.84;;;-134.68
12409;BMP180;6268;48.188;17.134;2023-03-13T02:30:47;49646.84;;;-134.68
12409;BMP180;6268;48.188;17.134;2023-03-13T02:33:18;49644.88;;;-134.68
12409;BMP180;6268;48.188;17.134;2023-03-13T02:35:48;49644.88;;;-134.68
12409;BMP180;6268;48.188;17.134;2023-03-13T02:38:24;49644.88;;;-134.68
12409;BMP180;6268;48.188;17.134;2023-03-13T02:40:59;49644.88;;;-134.68
12409;BMP180;6268;48.188;17.134;2023-03-13T02:43:31;49642.94;;;-134.68
12409;BMP180;6268;48.188;17.134;2023-03-13T02:46:07;49646.84;;;-134.68
12409;BMP180;6268;48.188;17.134;2023-03-13T02:48:40;49648.78;;;-134.68
12409;BMP180;6268;48.188;17.134;2023-03-13T02:51:17;49646.84;;;-134.68
12409;BMP180;6268;48.188;17.134;2023-03-13T02:53:49;49644.88;;;-134.68
12409;BMP180;6268;48.188;17.134;2023-03-13T02:56:24;49646.84;;;-134.68
12409;BMP180;6268;48.188;17.134;2023-03-13T02:58:54;49644.88;;;-134.68
12409;BMP180;6268;48.188;17.134;2023-03-13T03:01:23;49644.88;;;-134.68
12409;BMP180;6268;48.188;17.134;2023-03-13T03:03:52;49646.84;;;-134.68
12409;BMP180;6268;48.188;17.134;2023-03-13T03:06:22;49644.88;;;-134.68
12409;BMP180;6268;48.188;17.134;2023-03-13T03:08:51;49644.88;;;-134.68
12409;BMP180;6268;48.188;17.134;2023-03-13T03:11:21;49642.94;;;-134.68
12409;BMP180;6268;48.188;17.134;2023-03-13T03:13:50;49644.88;;;-134.68
12409;BMP180;6268;48.188;17.134;2023-03-13T03:16:19;49644.88;;;-134.68
12409;BMP180;6268;48.188;17.134;2023-03-13T03:18:48;49644.88;;;-134.68
12409;BMP180;6268;48.188;17.134;2023-03-13T03:21:17;49642.94;;;-134.68
12409;BMP180;6268;48.188;17.134;2023-03-13T03:23:47;49644.88;;;-134.68
12409;BMP180;6268;48.188;17.134;2023-03-13T03:26:17;49642.94;;;-134.68
12409;BMP180;6268;48.188;17.134;2023-03-13T03:28:47;49644.88;;;-134.68
12409;BMP180;6268;48.188;17.134;2023-03-13T03:31:17;49644.88;;;-134.68
12409;BMP180;6268;48.188;17.134;2023-03-13T03:33:47;49644.88;;;-134.68
12409;BMP180;6268;48.188;17.134;2023-03-13T03:36:19;49646.84;;;-134.68
12409;BMP180;6268;48.188;17.134;2023-03-13T03:38:49;49644.88;;;-134.68
12409;BMP180;6268;48.188;17.134;2023-03-13T03:41:19;49642.94;;;-134.68
12409;BMP180;6268;48.188;17.134;2023-03-13T03:43:49;49644.88;;;-134.68
12409;BMP180;6268;48.188;17.134;2023-03-13T03:46:18;49644.88;;;-134.68
12409;BMP180;6268;48.188;17.134;2023-03-13T03:48:48;49644.88;;;-134.68
12409;BMP180;6268;48.188;17.134;2023-03-13T03:51:17;49644.88;;;-134.68
12409;BMP180;6268;48.188;17.134;2023-03-13T03:53:46;49644.88;;;-134.68
12409;BMP180;6268;48.188;17.134;2023-03-13T03:56:15;49646.84;;;-134.68
12409;BMP180;6268;48.188;17.134;2023-03-13T03:58:44;49644.88;;;-134.68
12409;BMP180;6268;48.188;17.134;2023-03-13T04:01:15;49642.94;;;-134.68
12409;BMP180;6268;48.188;17.134;2023-03-13T04:03:45;49642.94;;;-134.68
12409;BMP180;6268;48.188;17.134;2023-03-13T04:06:15;49642.94;;;-134.68
12409;BMP180;6268;48.188;17.134;2023-03-13T04:08:44;49644.88;;;-134.68
12409;BMP180;6268;48.188;17.134;2023-03-13T04:11:13;49646.84;;;-134.68
12409;BMP180;6268;48.188;17.134;2023-03-13T04:13:44;49642.94;;;-134.68
12409;BMP180;6268;48.188;17.134;2023-03-13T04:16:18;49642.94;;;-134.68
12409;BMP180;6268;48.188;17.134;2023-03-13T04:18:47;49646.84;;;-134.68
12409;BMP180;6268;48.188;17.134;2023-03-13T04:21:16;49642.94;;;-134.68
12409;BMP180;6268;48.188;17.134;2023-03-13T04:23:45;49642.94;;;-134.68
12409;BMP180;6268;48.188;17.134;2023-03-13T04:26:14;49644.88;;;-134.68
12409;BMP180;6268;48.188;17.134;2023-03-13T04:28:43;49642.94;;;-134.68
12409;BMP180;6268;48.188;17.134;2023-03-13T04:31:12;49644.88;;;-134.68
12409;BMP180;6268;48.188;17.134;2023-03-13T04:33:43;49644.88;;;-134.68
12409;BMP180;6268;48.188;17.134;2023-03-13T04:36:14;49644.88;;;-134.68
12409;BMP180;6268;48.188;17.134;2023-03-13T04:38:43;49642.94;;;-134.68
12409;BMP180;6268;48.188;17.134;2023-03-13T04:41:12;49642.94;;;-134.68
12409;BMP180;6268;48.188;17.134;2023-03-13T04:43:41;49646.84;;;-134.68
12409;BMP180;6268;48.188;17.134;2023-03-13T04:46:13;49646.84;;;-134.68
12409;BMP180;6268;48.188;17.134;2023-03-13T04:48:43;49642.94;;;-134.68
12409;BMP180;6268;48.188;17.134;2023-03-13T04:51:15;49642.94;;;-134.68
12409;BMP180;6268;48.188;17.134;2023-03-13T04:53:45;49644.88;;;-134.68
12409;BMP180;6268;48.188;17.134;2023-03-13T04:56:22;49646.84;;;-134.68
12409;BMP180;6268;48.188;17.134;2023-03-13T04:59:10;49642.94;;;-134.68
12409;BMP180;6268;48.188;17.134;2023-03-13T05:01:40;49646.84;;;-134.68
12409;BMP180;6268;48.188;17.134;2023-03-13T05:04:11;49644.88;;;-134.68
12409;BMP180;6268;48.188;17.134;2023-03-13T05:06:40;49646.84;;;-134.68
12409;BMP180;6268;48.188;17.134;2023-03-13T05:09:10;49644.88;;;-134.68
12409;BMP180;6268;48.188;17.134;2023-03-13T05:11:39;49642.94;;;-134.68
12409;BMP180;6268;48.188;17.134;2023-03-13T05:14:08;49644.88;;;-134.68
12409;BMP180;6268;48.188;17.134;2023-03-13T05:16:38;49644.88;;;-134.68
12409;BMP180;6268;48.188;17.134;2023-03-13T05:19:07;49646.84;;;-134.68
12409;BMP180;6268;48.188;17.134;2023-03-13T05:21:37;49646.84;;;-134.68
12409;BMP180;6268;48.188;17.134;2023-03-13T05:24:06;49644.88;;;-134.68
12409;BMP180;6268;48.188;17.134;2023-03-13T05:26:35;49642.94;;;-134.68
12409;BMP180;6268;48.188;17.134;2023-03-13T05:29:04;49642.94;;;-134.68
12409;BMP180;6268;48.188;17.134;2023-03-13T05:31:33;49644.88;;;-134.68
12409;BMP180;6268;48.188;17.134;2023-03-13T05:34:02;49644.88;;;-134.68
12409;BMP180;6268;48.188;17.134;2023-03-13T05:36:31;49642.94;;;-134.68
12409;BMP180;6268;48.188;17.134;2023-03-13T05:39:02;49642.94;;;-134.68
12409;BMP180;6268;48.188;17.134;2023-03-13T05:41:31;49646.84;;;-134.68
12409;BMP180;6268;48.188;17.134;2023-03-13T05:44:00;49641.00;;;-134.68
12409;BMP180;6268;48.188;17.134;2023-03-13T05:46:29;49644.88;;;-134.68
12409;BMP180;6268;48.188;17.134;2023-03-13T05:48:59;49642.94;;;-134.68
12409;BMP180;6268;48.188;17.134;2023-03-13T05:51:28;49646.84;;;-134.68
12409;BMP180;6268;48.188;17.134;2023-03-13T05:53:57;49646.84;;;-134.68
12409;BMP180;6268;48.188;17.134;2023-03-13T05:56:27;49642.94;;;-134.68
12409;BMP180;6268;48.188;17.134;2023-03-13T05:58:56;49644.88;;;-134.68
12409;BMP180;6268;48.188;17.134;2023-03-13T06:01:25;49644.88;;;-134.68
12409;BMP180;6268;48.188;17.134;2023-03-13T06:03:54;49644.88;;;-134.68
12409;BMP180;6268;48.188;17.134;2023-03-13T06:06:23;49646.84;;;-134.68
12409;BMP180;6268;48.188;17.134;2023-03-13T06:08:52;49642.94;;;-134.68
12409;BMP180;6268;48.188;17.134;2023-03-13T06:11:20;49646.84;;;-134.68
12409;BMP180;6268;48.188;17.134;2023-03-13T06:13:52;49644.88;;;-134.68
12409;BMP180;6268;48.188;17.134;2023-03-13T06:16:21;49646.84;;;-134.68
12409;BMP180;6268;48.188;17.134;2023-03-13T06:18:50;49642.94;;;-134.68
12409;BMP180;6268;48.188;17.134;2023-03-13T06:21:19;49646.84;;;-134.68
12409;BMP180;6268;48.188;17.134;2023-03-13T06:23:48;49648.78;;;-134.68
12409;BMP180;6268;48.188;17.134;2023-03-13T06:26:17;49646.84;;;-134.68
12409;BMP180;6268;48.188;17.134;2023-03-13T06:28:46;49644.88;;;-134.68
12409;BMP180;6268;48.188;17.134;2023-03-13T06:31:16;49648.78;;;-134.68
12409;BMP180;6268;48.188;17.134;2023-03-13T06:33:46;49646.84;;;-134.68
12409;BMP180;6268;48.188;17.134;2023-03-13T06:36:17;49644.88;;;-134.68
12409;BMP180;6268;48.188;17.134;2023-03-13T06:38:45;49648.78;;;-134.68
12409;BMP180;6268;48.188;17.134;2023-03-13T06:41:14;49650.72;;;-134.68
12409;BMP180;6268;48.188;17.134;2023-03-13T06:43:44;49650.72;;;-134.68
12409;BMP180;6268;48.188;17.134;2023-03-13T06:46:19;49650.72;;;-134.68
12409;BMP180;6268;48.188;17.134;2023-03-13T06:48:48;49646.84;;;-134.68
12409;BMP180;6268;48.188;17.134;2023-03-13T06:51:20;49648.78;;;-134.68
12409;BMP180;6268;48.188;17.134;2023-03-13T06:53:49;49650.72;;;-134.68
12409;BMP180;6268;48.188;17.134;2023-03-13T06:56:18;49646.84;;;-134.68
12409;BMP180;6268;48.188;17.134;2023-03-13T06:58:49;49648.78;;;-134.68
12409;BMP180;6268;48.188;17.134;2023-03-13T07:01:19;49648.78;;;-134.68
12409;BMP180;6268;48.188;17.134;2023-03-13T07:03:49;49648.78;;;-134.68
12409;BMP180;6268;48.188;17.134;2023-03-13T07:06:18;49644.88;;;-134.68
12409;BMP180;6268;48.188;17.134;2023-03-13T07:08:47;49650.72;;;-134.68
12409;BMP180;6268;48.188;17.134;2023-03-13T07:11:16;49646.84;;;-134.68
12409;BMP180;6268;48.188;17.134;2023-03-13T07:13:45;49648.78;;;-134.68
12409;BMP180;6268;48.188;17.134;2023-03-13T07:16:14;49650.72;;;-134.68
12409;BMP180;6268;48.188;17.134;2023-03-13T07:18:44;49648.78;;;-134.68
12409;BMP180;6268;48.188;17.134;2023-03-13T07:21:14;49650.72;;;-134.68
12409;BMP180;6268;48.188;17.134;2023-03-13T07:23:43;49650.72;;;-134.68
12409;BMP180;6268;48.188;17.134;2023-03-13T07:26:14;49646.84;;;-134.68
12409;BMP180;6268;48.188;17.134;2023-03-13T07:28:44;49650.72;;;-134.68
12409;BMP180;6268;48.188;17.134;2023-03-13T07:31:14;49652.66;;;-134.68
12409;BMP180;6268;48.188;17.134;2023-03-13T07:33:45;49650.72;;;-134.68
12409;BMP180;6268;48.188;17.134;2023-03-13T07:36:15;49650.72;;;-134.68
12409;BMP180;6268;48.188;17.134;2023-03-13T07:38:47;49648.78;;;-134.68
12409;BMP180;6268;48.188;17.134;2023-03-13T07:41:17;49648.78;;;-134.68
12409;BMP180;6268;48.188;17.134;2023-03-13T07:43:46;49648.78;;;-134.68
12409;BMP180;6268;48.188;17.134;2023-03-13T07:46:17;49646.84;;;-134.68
12409;BMP180;6268;48.188;17.134;2023-03-13T07:48:48;49650.72;;;-134.68
12409;BMP180;6268;48.188;17.134;2023-03-13T07:51:19;49650.72;;;-134.68
12409;BMP180;6268;48.188;17.134;2023-03-13T07:54:06;49650.72;;;-134.68
12409;BMP180;6268;48.188;17.134;2023-03-13T07:56:35;49652.66;;;-134.68
12409;BMP180;6268;48.188;17.134;2023-03-13T07:59:05;49652.66;;;-134.68
12409;BMP180;6268;48.188;17.134;2023-03-13T08:01:34;49650.72;;;-134.68
12409;BMP180;6268;48.188;17.134;2023-03-13T08:04:05;49648.78;;;-134.68
12409;BMP180;6268;48.188;17.134;2023-03-13T08:06:34;49652.66;;;-134.68
12409;BMP180;6268;48.188;17.134;2023-03-13T08:09:03;49650.72;;;-134.68
12409;BMP180;6268;48.188;17.134;2023-03-13T08:11:33;49648.78;;;-134.68
12409;BMP180;6268;48.188;17.134;2023-03-13T08:14:02;49650.72;;;-134.68
12409;BMP180;6268;48.188;17.134;2023-03-13T08:16:33;49646.84;;;-134.68
12409;BMP180;6268;48.188;17.134;2023-03-13T08:19:04;49652.66;;;-134.68
12409;BMP180;6268;48.188;17.134;2023-03-13T08:21:35;49650.72;;;-134.68
12409;BMP180;6268;48.188;17.134;2023-03-13T08:24:06;49654.59;;;-134.68
12409;BMP180;6268;48.188;17.134;2023-03-13T08:26:39;49648.78;;;-134.68
12409;BMP180;6268;48.188;17.134;2023-03-13T08:29:10;49650.72;;;-134.68
12409;BMP180;6268;48.188;17.134;2023-03-13T08:31:45;49650.72;;;-134.68
12409;BMP180;6268;48.188;17.134;2023-03-13T08:34:17;49650.72;;;-134.68
12409;BMP180;6268;48.188;17.134;2023-03-13T08:36:46;49648.78;;;-134.68
12409;BMP180;6268;48.188;17.134;2023-03-13T08:39:18;49650.72;;;-134.68
12409;BMP180;6268;48.188;17.134;2023-03-13T08:41:47;49648.78;;;-134.68
12409;BMP180;6268;48.188;17.134;2023-03-13T08:44:18;49646.84;;;-134.68
12409;BMP180;6268;48.188;17.134;2023-03-13T08:46:48;49650.72;;;-134.68
12409;BMP180;6268;48.188;17.134;2023-03-13T08:49:18;49650.72;;;-134.68
12409;BMP180;6268;48.188;17.134;2023-03-13T08:51:47;49650.72;;;-134.68
12409;BMP180;6268;48.188;17.134;2023-03-13T08:54:16;49646.84;;;-134.68
12409;BMP180;6268;48.188;17.134;2023-03-13T08:56:45;49646.84;;;-134.68
12409;BMP180;6268;48.188;17.134;2023-03-13T08:59:14;49646.84;;;-134.68
12409;BMP180;6268;48.188;17.134;2023-03-13T09:01:43;49648.78;;;-134.68
12409;BMP180;6268;48.188;17.134;2023-03-13T09:04:12;49648.78;;;-134.68
12409;BMP180;6268;48.188;17.134;2023-03-13T09:06:42;49646.84;;;-134.68
12409;BMP180;6268;48.188;17.134;2023-03-13T09:09:12;49650.72;;;-134.68
12409;BMP180;6268;48.188;17.134;2023-03-13T09:11:41;49650.72;;;-134.68
12409;BMP180;6268;48.188;17.134;2023-03-13T09:14:10;49650.72;;;-134.68
12409;BMP180;6268;48.188;17.134;2023-03-13T09:16:39;49648.78;;;-134.68
12409;BMP180;6268;48.188;17.134;2023-03-13T09:19:08;49646.84;;;-134.68
12409;BMP180;6268;48.188;17.134;2023-03-13T09:21:37;49648.78;;;-134.68
12409;BMP180;6268;48.188;17.134;2023-03-13T09:24:07;49646.84;;;-134.68
12409;BMP180;6268;48.188;17.134;2023-03-13T09:26:36;49646.84;;;-134.68
12409;BMP180;6268;48.188;17.134;2023-03-13T09:29:12;49646.84;;;-134.68
12409;BMP180;6268;48.188;17.134;2023-03-13T09:31:41;49648.78;;;-134.68
12409;BMP180;6268;48.188;17.134;2023-03-13T09:34:10;49646.84;;;-134.68
12409;BMP180;6268;48.188;17.134;2023-03-13T09:36:39;49646.84;;;-134.68
12409;BMP180;6268;48.188;17.134;2023-03-13T09:39:10;49650.72;;;-134.68
12409;BMP180;6268;48.188;17.134;2023-03-13T09:41:47;49648.78;;;-134.68
12409;BMP180;6268;48.188;17.134;2023-03-13T09:44:24;49646.84;;;-134.68
12409;BMP180;6268;48.188;17.134;2023-03-13T09:47:02;49646.84;;;-134.68
12409;BMP180;6268;48.188;17.134;2023-03-13T09:49:37;49648.78;;;-134.68
12409;BMP180;6268;48.188;17.134;2023-03-13T09:52:15;49648.78;;;-134.68
12409;BMP180;6268;48.188;17.134;2023-03-13T09:54:53;49646.84;;;-134.68
12409;BMP180;6268;48.188;17.134;2023-03-13T09:57:32;49646.84;;;-134.68
12409;BMP180;6268;48.188;17.134;2023-03-13T10:00:07;49646.84;;;-134.68
12409;BMP180;6268;48.188;17.134;2023-03-13T10:02:45;49648.78;;;-134.68
12409;BMP180;6268;48.188;17.134;2023-03-13T10:05:20;49648.78;;;-134.68
12409;BMP180;6268;48.188;17.134;2023-03-13T10:07:49;49646.84;;;-134.68
12409;BMP180;6268;48.188;17.134;2023-03-13T10:10:37;49644.88;;;-134.68
12409;BMP180;6268;48.188;17.134;2023-03-13T10:13:19;49646.84;;;-134.68
12409;BMP180;6268;48.188;17.134;2023-03-13T10:15:55;49650.72;;;-134.68
12409;BMP180;6268;48.188;17.134;2023-03-13T10:18:25;49648.78;;;-134.68
12409;BMP180;6268;48.188;17.134;2023-03-13T10:20:59;49650.72;;;-134.68
12409;BMP180;6268;48.188;17.134;2023-03-13T10:23:38;49650.72;;;-134.68
12409;BMP180;6268;48.188;17.134;2023-03-13T10:26:15;49650.72;;;-134.68
12409;BMP180;6268;48.188;17.134;2023-03-13T10:28:50;49648.78;;;-134.68
12409;BMP180;6268;48.188;17.134;2023-03-13T10:31:27;49648.78;;;-134.68
12409;BMP180;6268;48.188;17.134;2023-03-13T10:34:05;49650.72;;;-134.68
12409;BMP180;6268;48.188;17.134;2023-03-13T10:36:40;49648.78;;;-134.68
12409;BMP180;6268;48.188;17.134;2023-03-13T10:39:17;49648.78;;;-134.68
12409;BMP180;6268;48.188;17.134;2023-03-13T10:41:48;49650.72;;;-134.68
12409;BMP180;6268;48.188;17.134;2023-03-13T10:44:19;49650.72;;;-134.68
12409;BMP180;6268;48.188;17.134;2023-03-13T10:46:50;49650.72;;;-134.68
12409;BMP180;6268;48.188;17.134;2023-03-13T10:49:21;49648.78;;;-134.68
12409;BMP180;6268;48.188;17.134;2023-03-13T10:51:53;49646.84;;;-134.68
12409;BMP180;6268;48.188;17.134;2023-03-13T10:54:25;49648.78;;;-134.68
12409;BMP180;6268;48.188;17.134;2023-03-13T10:57:24;49650.72;;;-134.68
12409;BMP180;6268;48.188;17.134;2023-03-13T10:59:56;49650.72;;;-134.68
12409;BMP180;6268;48.188;17.134;2023-03-13T11:02:31;49650.72;;;-134.68
12409;BMP180;6268;48.188;17.134;2023-03-13T11:05:03;49650.72;;;-134.68
12409;BMP180;6268;48.188;17.134;2023-03-13T11:07:52;49650.72;;;-134.68
12409;BMP180;6268;48.188;17.134;2023-03-13T11:10:23;49650.72;;;-134.68
12409;BMP180;6268;48.188;17.134;2023-03-13T11:12:56;49648.78;;;-134.68
12409;BMP180;6268;48.188;17.134;2023-03-13T11:15:33;49648.78;;;-134.68
12409;BMP180;6268;48.188;17.134;2023-03-13T11:18:10;49650.72;;;-134.68
12409;BMP180;6268;48.188;17.134;2023-03-13T11:20:44;49648.78;;;-134.68
12409;BMP180;6268;48.188;17.134;2023-03-13T11:23:19;49650.72;;;-134.68
12409;BMP180;6268;48.188;17.134;2023-03-13T11:26:01;49648.78;;;-134.68
12409;BMP180;6268;48.188;17.134;2023-03-13T11:28:48;49650.72;;;-134.68
12409;BMP180;6268;48.188;17.134;2023-03-13T11:31:24;49648.78;;;-134.68
12409;BMP180;6268;48.188;17.134;2023-03-13T11:34:04;49650.72;;;-134.68
12409;BMP180;6268;48.188;17.134;2023-03-13T11:36:40;49648.78;;;-134.68
12409;BMP180;6268;48.188;17.134;2023-03-13T11:39:53;49650.72;;;-134.68
12409;BMP180;6268;48.188;17.134;2023-03-13T11:46:21;49650.72;;;-134.68
12409;BMP180;6268;48.188;17.134;2023-03-13T11:49:15;49652.66;;;-134.68
12409;BMP180;6268;48.188;17.134;2023-03-13T11:52:07;49648.78;;;-134.68
12409;BMP180;6268;48.188;17.134;2023-03-13T11:55:28;49650.72;;;-134.68
12409;BMP180;6268;48.188;17.134;2023-03-13T11:58:17;49650.72;;;-134.68
12409;BMP180;6268;48.188;17.134;2023-03-13T12:00:58;49644.88;;;-134.68
12409;BMP180;6268;48.188;17.134;2023-03-13T12:03:37;49646.84;;;-134.68
12409;BMP180;6268;48.188;17.134;2023-03-13T12:06:22;49648.78;;;-134.68
12409;BMP180;6268;48.188;17.134;2023-03-13T12:09:02;49648.78;;;-134.68
12409;BMP180;6268;48.188;17.134;2023-03-13T12:11:39;49650.72;;;-134.68
12409;BMP180;6268;48.188;17.134;2023-03-13T12:14:19;49650.72;;;-134.68
12409;BMP180;6268;48.188;17.134;2023-03-13T12:16:55;49650.72;;;-134.68
12409;BMP180;6268;48.188;17.134;2023-03-13T12:19:33;49652.66;;;-134.68
12409;BMP180;6268;48.188;17.134;2023-03-13T12:22:14;49650.72;;;-134.68
12409;BMP180;6268;48.188;17.134;2023-03-13T12:24:52;49650.72;;;-134.68
12409;BMP180;6268;48.188;17.134;2023-03-13T12:27:30;49650.72;;;-134.68
12409;BMP180;6268;48.188;17.134;2023-03-13T12:30:06;49650.72;;;-134.68
12409;BMP180;6268;48.188;17.134;2023-03-13T12:32:42;49652.66;;;-134.68
12409;BMP180;6268;48.188;17.134;2023-03-13T12:35:21;49652.66;;;-134.68
12409;BMP180;6268;48.188;17.134;2023-03-13T12:37:59;49648.78;;;-134.68
12409;BMP180;6268;48.188;17.134;2023-03-13T12:40:35;49646.84;;;-134.68
12409;BMP180;6268;48.188;17.134;2023-03-13T12:43:13;49650.72;;;-134.68
12409;BMP180;6268;48.188;17.134;2023-03-13T12:46:05;49648.78;;;-134.68
12409;BMP180;6268;48.188;17.134;2023-03-13T12:49:07;49652.66;;;-134.68
12409;BMP180;6268;48.188;17.134;2023-03-13T12:52:00;49648.78;;;-134.68
12409;BMP180;6268;48.188;17.134;2023-03-13T12:54:59;49650.72;;;-134.68
12409;BMP180;6268;48.188;17.134;2023-03-13T12:58:15;49648.78;;;-134.68
12409;BMP180;6268;48.188;17.134;2023-03-13T13:00:49;49648.78;;;-134.68
12409;BMP180;6268;48.188;17.134;2023-03-13T13:03:29;49650.72;;;-134.68
12409;BMP180;6268;48.188;17.134;2023-03-13T13:06:08;49650.72;;;-134.68
12409;BMP180;6268;48.188;17.134;2023-03-13T13:08:40;49648.78;;;-134.68
12409;BMP180;6268;48.188;17.134;2023-03-13T13:11:52;49646.84;;;-134.68
12409;BMP180;6268;48.188;17.134;2023-03-13T13:15:10;49650.72;;;-134.68
12409;BMP180;6268;48.188;17.134;2023-03-13T13:17:56;49646.84;;;-134.68
12409;BMP180;6268;48.188;17.134;2023-03-13T13:20:42;49648.78;;;-134.68
12409;BMP180;6268;48.188;17.134;2023-03-13T13:23:35;49648.78;;;-134.68
12409;BMP180;6268;48.188;17.134;2023-03-13T13:26:48;49650.72;;;-134.68
12409;BMP180;6268;48.188;17.134;2023-03-13T13:29:57;49650.72;;;-134.68
12409;BMP180;6268;48.188;17.134;2023-03-13T13:32:42;49650.72;;;-134.68
12409;BMP180;6268;48.188;17.134;2023-03-13T13:35:26;49650.72;;;-134.68
12409;BMP180;6268;48.188;17.134;2023-03-13T13:38:28;49648.78;;;-134.68
12409;BMP180;6268;48.188;17.134;2023-03-13T13:41:33;49648.78;;;-134.68
12409;BMP180;6268;48.188;17.134;2023-03-13T13:44:23;49648.78;;;-134.68
12409;BMP180;6268;48.188;17.134;2023-03-13T13:46:55;49650.72;;;-134.68
12409;BMP180;6268;48.188;17.134;2023-03-13T13:49:35;49650.72;;;-134.68
12409;BMP180;6268;48.188;17.134;2023-03-13T13:52:39;49648.78;;;-134.68
12409;BMP180;6268;48.188;17.134;2023-03-13T13:55:40;49648.78;;;-134.68
12409;BMP180;6268;48.188;17.134;2023-03-13T13:58:27;49648.78;;;-134.68
12409;BMP180;6268;48.188;17.134;2023-03-13T14:01:00;49652.66;;;-134.68
12409;BMP180;6268;48.188;17.134;2023-03-13T14:03:33;49648.78;;;-134.68
12409;BMP180;6268;48.188;17.134;2023-03-13T14:06:17;49650.72;;;-134.68
12409;BMP180;6268;48.188;17.134;2023-03-13T14:08:53;49648.78;;;-134.68
12409;BMP180;6268;48.188;17.134;2023-03-13T14:11:28;49648.78;;;-134.68
12409;BMP180;6268;48.188;17.134;2023-03-13T14:14:16;49648.78;;;-134.68
12409;BMP180;6268;48.188;17.134;2023-03-13T14:16:47;49650.72;;;-134.68
12409;BMP180;6268;48.188;17.134;2023-03-13T14:19:27;49650.72;;;-134.68
12409;BMP180;6268;48.188;17.134;2023-03-13T14:21:59;49652.66;;;-134.68
12409;BMP180;6268;48.188;17.134;2023-03-13T14:24:29;49648.78;;;-134.68
12409;BMP180;6268;48.188;17.134;2023-03-13T14:26:58;49648.78;;;-134.68